createdAt,value
2022-09-17T00:02:17.742Z,13.00
2022-09-17T00:05:00.925Z,13.00
2022-09-17T00:07:30.692Z,13.00
2022-09-17T00:10:11.163Z,13.10
2022-09-17T00:12:39.006Z,13.20
2022-09-17T00:15:09.609Z,13.20
2022-09-17T00:17:39.212Z,13.30
2022-09-17T00:20:11.134Z,13.30
2022-09-17T00:22:40.044Z,13.30
2022-09-17T00:25:10.128Z,13.40
2022-09-17T00:27:38.474Z,13.30
2022-09-17T00:30:08.418Z,13.30
2022-09-17T00:32:36.250Z,13.40
2022-09-17T00:35:15.086Z,13.30
2022-09-17T00:37:42.887Z,13.30
2022-09-17T00:40:13.969Z,13.10
2022-09-17T00:45:43.147Z,13.00
2022-09-17T00:48:13.901Z,13.10
2022-09-17T00:51:04.565Z,13.10
2022-09-17T00:53:34.189Z,13.10
2022-09-17T00:56:07.805Z,13.10
2022-09-17T00:58:41.109Z,13.10
2022-09-17T01:01:12.916Z,13.10
2022-09-17T01:03:42.713Z,13.10
2022-09-17T01:06:21.503Z,13.10
2022-09-17T01:09:02.964Z,13.20
2022-09-17T01:11:52.301Z,13.20
2022-09-17T01:14:32.523Z,13.20
2022-09-17T01:17:10.014Z,13.20
2022-09-17T01:20:29.599Z,13.20
2022-09-17T01:23:25.323Z,13.30
2022-09-17T01:26:05.381Z,13.30
2022-09-17T01:28:44.114Z,13.30
2022-09-17T01:31:37.246Z,13.30
2022-09-17T01:34:20.486Z,13.30
2022-09-17T01:37:06.706Z,13.30
2022-09-17T01:39:44.429Z,13.30
2022-09-17T01:42:19.728Z,13.30
2022-09-17T01:44:55.759Z,13.40
2022-09-17T01:47:31.171Z,13.40
2022-09-17T01:50:05.014Z,13.30
2022-09-17T01:52:36.384Z,13.30
2022-09-17T01:55:08.643Z,13.30
2022-09-17T01:57:44.069Z,13.20
2022-09-17T02:00:15.974Z,13.20
2022-09-17T02:02:49.635Z,13.10
2022-09-17T02:05:35.044Z,13.10
2022-09-17T02:08:07.588Z,13.10
2022-09-17T02:10:38.882Z,13.10
2022-09-17T02:13:11.696Z,13.10
2022-09-17T02:15:46.985Z,13.10
2022-09-17T02:18:26.303Z,13.10
2022-09-17T02:20:59.466Z,13.10
2022-09-17T02:23:31.315Z,13.00
2022-09-17T02:26:05.703Z,13.10
2022-09-17T02:28:39.436Z,13.00
2022-09-17T02:31:07.868Z,13.00
2022-09-17T02:33:39.279Z,13.10
2022-09-17T02:36:07.673Z,13.10
2022-09-17T02:38:35.916Z,13.10
2022-09-17T02:41:15.500Z,13.10
2022-09-17T02:43:52.367Z,13.10
2022-09-17T02:49:50.104Z,13.10
2022-09-17T02:52:31.644Z,13.10
2022-09-17T02:55:08.364Z,13.10
2022-09-17T02:57:44.315Z,13.10
2022-09-17T03:00:24.986Z,13.10
2022-09-17T03:03:00.987Z,13.20
2022-09-17T03:05:31.223Z,13.20
2022-09-17T03:08:05.133Z,13.20
2022-09-17T03:10:34.349Z,13.20
2022-09-17T03:13:06.974Z,13.20
2022-09-17T03:15:36.149Z,13.20
2022-09-17T03:18:06.670Z,13.10
2022-09-17T03:20:35.839Z,13.10
2022-09-17T03:23:03.631Z,13.10
2022-09-17T03:25:35.219Z,13.10
2022-09-17T03:28:04.180Z,13.10
2022-09-17T03:30:32.064Z,13.10
2022-09-17T03:33:04.190Z,13.10
2022-09-17T03:35:32.011Z,13.10
2022-09-17T03:38:03.048Z,13.10
2022-09-17T03:40:32.767Z,13.10
2022-09-17T03:43:00.886Z,13.10
2022-09-17T03:45:28.910Z,13.10
2022-09-17T03:48:01.169Z,13.10
2022-09-17T03:53:17.097Z,13.10
2022-09-17T03:56:01.924Z,13.10
2022-09-17T03:58:32.170Z,13.10
2022-09-17T04:01:07.878Z,13.10
2022-09-17T04:03:35.812Z,13.10
2022-09-17T04:06:03.826Z,13.10
2022-09-17T04:08:33.856Z,13.00
2022-09-17T04:11:01.668Z,12.90
2022-09-17T04:13:29.490Z,12.90
2022-09-17T04:16:01.104Z,12.90
2022-09-17T04:18:29.234Z,12.90
2022-09-17T04:20:57.066Z,12.80
2022-09-17T04:23:24.921Z,12.90
2022-09-17T04:25:54.089Z,12.90
2022-09-17T04:28:22.279Z,12.90
2022-09-17T04:30:55.893Z,12.80
2022-09-17T04:33:23.821Z,12.80
2022-09-17T04:35:51.877Z,12.80
2022-09-17T04:38:22.320Z,12.80
2022-09-17T04:40:51.524Z,12.80
2022-09-17T04:43:20.748Z,12.80
2022-09-17T04:45:49.253Z,12.80
2022-09-17T04:48:17.974Z,12.80
2022-09-17T04:50:45.830Z,12.80
2022-09-17T04:53:13.844Z,12.80
2022-09-17T04:55:43.386Z,12.80
2022-09-17T04:58:11.759Z,12.80
2022-09-17T05:00:41.776Z,12.80
2022-09-17T05:03:10.158Z,12.80
2022-09-17T05:05:38.213Z,12.80
2022-09-17T05:08:08.259Z,12.80
2022-09-17T05:10:36.397Z,12.80
2022-09-17T05:13:04.391Z,12.80
2022-09-17T05:15:33.504Z,12.90
2022-09-17T05:18:02.926Z,12.80
2022-09-17T05:20:31.020Z,12.80
2022-09-17T05:23:01.111Z,12.70
2022-09-17T05:25:37.093Z,12.70
2022-09-17T05:28:04.909Z,12.60
2022-09-17T05:30:33.042Z,12.60
2022-09-17T05:33:04.798Z,12.60
2022-09-17T05:35:33.782Z,12.50
2022-09-17T05:38:02.820Z,12.30
2022-09-17T05:40:31.333Z,12.20
2022-09-17T05:43:05.749Z,12.20
2022-09-17T05:45:36.110Z,12.10
2022-09-17T05:48:08.070Z,12.10
2022-09-17T05:50:35.985Z,12.10
2022-09-17T05:53:05.999Z,12.10
2022-09-17T05:55:36.417Z,12.10
2022-09-17T06:01:43.834Z,12.20
2022-09-17T06:04:15.655Z,12.30
2022-09-17T06:06:43.603Z,12.30
2022-09-17T06:09:12.022Z,12.40
2022-09-17T06:11:39.832Z,12.40
2022-09-17T06:14:08.213Z,12.50
2022-09-17T06:16:36.939Z,12.50
2022-09-17T06:19:18.707Z,12.50
2022-09-17T06:21:55.254Z,12.50
2022-09-17T06:24:23.081Z,12.50
2022-09-17T06:26:52.372Z,12.50
2022-09-17T06:29:21.298Z,12.60
2022-09-17T06:31:49.619Z,12.60
2022-09-17T06:34:19.138Z,12.70
2022-09-17T06:36:47.577Z,12.80
2022-09-17T06:39:15.754Z,12.90
2022-09-17T06:41:43.808Z,12.90
2022-09-17T06:44:12.511Z,12.90
2022-09-17T06:46:41.547Z,12.90
2022-09-17T06:49:09.588Z,13.00
2022-09-17T06:51:38.991Z,13.10
2022-09-17T06:54:07.469Z,13.10
2022-09-17T06:56:35.643Z,13.20
2022-09-17T06:59:04.000Z,13.30
2022-09-17T07:01:32.785Z,13.40
2022-09-17T07:04:00.778Z,13.40
2022-09-17T07:06:36.613Z,13.50
2022-09-17T07:09:11.097Z,13.50
2022-09-17T07:11:39.057Z,13.60
2022-09-17T07:14:08.126Z,13.60
2022-09-17T07:16:36.759Z,13.60
2022-09-17T07:19:06.922Z,13.70
2022-09-17T07:21:36.127Z,13.60
2022-09-17T07:24:10.346Z,13.60
2022-09-17T07:26:44.101Z,13.50
2022-09-17T07:29:14.838Z,13.60
2022-09-17T07:31:45.548Z,13.70
2022-09-17T07:34:16.094Z,13.70
2022-09-17T07:36:48.462Z,13.60
2022-09-17T07:39:26.064Z,13.60
2022-09-17T07:41:55.956Z,13.60
2022-09-17T07:44:24.167Z,13.70
2022-09-17T07:46:52.053Z,13.70
2022-09-17T07:49:36.132Z,13.70
2022-09-17T07:52:12.271Z,13.50
2022-09-17T07:54:43.774Z,13.30
2022-09-17T07:57:11.622Z,13.20
2022-09-17T07:59:42.392Z,13.10
2022-09-17T08:02:13.427Z,13.10
2022-09-17T08:04:57.631Z,13.00
2022-09-17T08:07:25.547Z,13.10
2022-09-17T08:10:02.713Z,13.10
2022-09-17T08:12:30.488Z,13.00
2022-09-17T08:14:58.350Z,13.00
2022-09-17T08:17:28.498Z,13.00
2022-09-17T08:20:07.749Z,12.90
2022-09-17T08:22:38.599Z,13.00
2022-09-17T08:25:12.810Z,13.10
2022-09-17T08:30:28.338Z,13.40
2022-09-17T08:33:02.733Z,13.50
2022-09-17T08:35:39.356Z,13.70
2022-09-17T08:38:15.791Z,13.90
2022-09-17T08:40:58.123Z,14.10
2022-09-17T08:46:13.089Z,14.20
2022-09-17T08:52:54.732Z,14.30
2022-09-17T08:55:34.872Z,14.50
2022-09-17T08:58:42.286Z,14.50
2022-09-17T09:01:31.563Z,14.50
2022-09-17T09:04:26.831Z,14.50
2022-09-17T09:09:46.235Z,14.80
2022-09-17T09:12:23.339Z,14.80
2022-09-17T09:15:16.395Z,14.70
2022-09-17T09:17:52.997Z,14.50
2022-09-17T09:20:35.267Z,14.30
2022-09-17T09:23:10.989Z,14.30
2022-09-17T09:25:51.814Z,14.30
2022-09-17T09:28:43.849Z,14.40
2022-09-17T09:31:25.202Z,14.60
2022-09-17T09:33:55.165Z,14.80
2022-09-17T09:36:22.962Z,14.60
2022-09-17T09:39:14.716Z,14.10
2022-09-17T09:41:50.626Z,13.40
2022-09-17T09:44:28.159Z,12.70
2022-09-17T09:47:24.336Z,12.20
2022-09-17T09:50:42.898Z,12.00
2022-09-17T09:53:26.478Z,11.90
2022-09-17T09:56:09.536Z,12.00
2022-09-17T09:58:56.085Z,12.10
2022-09-17T10:01:27.535Z,12.40
2022-09-17T10:04:00.042Z,12.60
2022-09-17T10:06:36.373Z,12.60
2022-09-17T10:09:16.947Z,12.40
2022-09-17T10:12:02.879Z,12.10
2022-09-17T10:14:32.817Z,11.90
2022-09-17T10:17:24.023Z,11.80
2022-09-17T10:20:22.903Z,11.90
2022-09-17T10:22:52.544Z,11.90
2022-09-17T10:25:29.978Z,12.00
2022-09-17T10:28:45.663Z,12.10
2022-09-17T10:31:28.662Z,12.20
2022-09-17T10:34:09.638Z,12.20
2022-09-17T10:36:42.964Z,12.40
2022-09-17T10:39:49.018Z,12.50
2022-09-17T10:42:18.365Z,12.70
2022-09-17T10:45:02.906Z,12.70
2022-09-17T10:47:33.429Z,12.80
2022-09-17T10:50:06.524Z,12.90
2022-09-17T10:52:42.274Z,13.00
2022-09-17T10:55:25.580Z,13.10
2022-09-17T10:58:08.928Z,13.30
2022-09-17T11:00:51.673Z,13.40
2022-09-17T11:04:23.118Z,13.60
2022-09-17T11:07:22.780Z,13.70
2022-09-17T11:10:00.471Z,13.90
2022-09-17T11:12:41.973Z,14.00
2022-09-17T11:15:37.303Z,14.20
2022-09-17T11:18:41.264Z,13.90
2022-09-17T11:21:33.720Z,13.60
2022-09-17T11:24:48.771Z,13.20
2022-09-17T11:27:41.271Z,13.00
2022-09-17T11:30:18.689Z,12.90
2022-09-17T11:33:08.725Z,12.90
2022-09-17T11:35:39.913Z,13.00
2022-09-17T11:38:14.026Z,13.20
2022-09-17T11:40:45.019Z,13.70
2022-09-17T11:43:24.819Z,13.90
2022-09-17T11:46:03.219Z,14.00
2022-09-17T11:48:37.587Z,14.30
2022-09-17T11:51:28.929Z,14.00
2022-09-17T11:54:02.055Z,13.60
2022-09-17T11:56:36.247Z,13.30
2022-09-17T11:59:17.983Z,13.30
2022-09-17T12:01:58.392Z,13.40
2022-09-17T12:04:54.352Z,13.60
2022-09-17T12:07:35.709Z,13.80
2022-09-17T12:10:25.056Z,13.90
2022-09-17T12:13:05.511Z,13.90
2022-09-17T12:15:56.136Z,14.10
2022-09-17T12:18:34.067Z,14.40
2022-09-17T12:21:19.046Z,14.30
2022-09-17T12:23:51.142Z,14.10
2022-09-17T12:26:35.666Z,14.00
2022-09-17T12:29:13.750Z,14.10
2022-09-17T12:31:49.611Z,14.10
2022-09-17T12:34:27.723Z,13.50
2022-09-17T12:37:03.229Z,13.00
2022-09-17T12:39:56.345Z,12.60
2022-09-17T12:42:48.030Z,12.50
2022-09-17T12:45:31.427Z,12.40
2022-09-17T12:48:38.785Z,12.40
2022-09-17T12:51:22.940Z,12.50
2022-09-17T12:54:16.196Z,12.60
2022-09-17T12:56:56.419Z,12.80
2022-09-17T12:59:30.124Z,13.00
2022-09-17T13:02:03.355Z,13.20
2022-09-17T13:05:10.923Z,13.40
2022-09-17T13:08:25.427Z,13.80
2022-09-17T13:11:12.199Z,14.10
2022-09-17T13:13:48.020Z,14.30
2022-09-17T13:16:25.731Z,14.20
2022-09-17T13:19:16.159Z,14.00
2022-09-17T13:21:52.464Z,13.80
2022-09-17T13:24:31.394Z,13.80
2022-09-17T13:27:06.252Z,13.70
2022-09-17T13:30:24.073Z,13.70
2022-09-17T13:32:53.716Z,13.70
2022-09-17T13:36:06.581Z,13.70
2022-09-17T13:38:44.174Z,13.90
2022-09-17T13:41:25.195Z,14.10
2022-09-17T13:44:12.230Z,14.00
2022-09-17T13:46:43.232Z,13.90
2022-09-17T13:52:12.210Z,13.50
2022-09-17T13:54:40.632Z,13.40
2022-09-17T13:57:18.495Z,13.40
2022-09-17T13:59:58.075Z,13.40
2022-09-17T14:02:41.721Z,13.50
2022-09-17T14:05:35.754Z,13.70
2022-09-17T14:08:45.750Z,13.90
2022-09-17T14:11:59.597Z,14.10
2022-09-17T14:14:50.921Z,14.30
2022-09-17T14:17:53.459Z,14.50
2022-09-17T14:20:25.094Z,14.70
2022-09-17T14:22:57.789Z,14.90
2022-09-17T14:25:43.786Z,15.10
2022-09-17T14:28:28.976Z,15.10
2022-09-17T14:30:58.407Z,14.90
2022-09-17T14:33:35.167Z,14.70
2022-09-17T14:36:12.500Z,14.50
2022-09-17T14:38:49.219Z,14.40
2022-09-17T14:41:23.851Z,14.30
2022-09-17T14:43:56.322Z,14.30
2022-09-17T14:46:40.388Z,14.30
2022-09-17T14:49:16.639Z,14.20
2022-09-17T14:51:57.922Z,14.00
2022-09-17T14:57:47.747Z,13.90
2022-09-17T15:00:33.595Z,13.90
2022-09-17T15:03:14.069Z,14.00
2022-09-17T15:05:51.249Z,14.00
2022-09-17T15:08:24.622Z,14.20
2022-09-17T15:11:10.936Z,14.20
2022-09-17T15:13:43.521Z,14.40
2022-09-17T15:16:19.917Z,14.80
2022-09-17T15:18:55.890Z,14.90
2022-09-17T15:21:57.334Z,14.80
2022-09-17T15:24:57.053Z,14.70
2022-09-17T15:27:30.163Z,15.10
2022-09-17T15:30:17.198Z,15.50
2022-09-17T15:33:00.946Z,15.90
2022-09-17T15:35:32.631Z,16.10
2022-09-17T15:38:22.834Z,16.00
2022-09-17T15:40:52.339Z,15.70
2022-09-17T15:43:27.240Z,15.40
2022-09-17T15:46:07.672Z,15.30
2022-09-17T15:48:39.583Z,15.10
2022-09-17T15:51:26.271Z,15.10
2022-09-17T15:53:58.645Z,15.10
2022-09-17T15:56:29.032Z,15.00
2022-09-17T15:59:06.329Z,15.00
2022-09-17T16:05:33.630Z,14.90
2022-09-17T16:08:22.808Z,14.80
2022-09-17T16:10:53.750Z,14.70
2022-09-17T16:13:27.864Z,14.70
2022-09-17T16:16:02.066Z,14.70
2022-09-17T16:18:30.110Z,14.50
2022-09-17T16:21:02.494Z,14.00
2022-09-17T16:23:46.985Z,13.70
2022-09-17T16:26:23.227Z,13.50
2022-09-17T16:28:54.690Z,13.40
2022-09-17T16:31:38.274Z,13.30
2022-09-17T16:34:06.202Z,13.40
2022-09-17T16:36:34.639Z,13.40
2022-09-17T16:39:05.249Z,13.40
2022-09-17T16:41:35.312Z,13.50
2022-09-17T16:46:59.403Z,13.60
2022-09-17T16:49:27.357Z,13.60
2022-09-17T16:51:55.272Z,13.70
2022-09-17T16:54:24.569Z,13.50
2022-09-17T16:56:52.846Z,13.30
2022-09-17T16:59:23.728Z,13.20
2022-09-17T17:01:51.550Z,13.10
2022-09-17T17:07:02.319Z,12.90
2022-09-17T17:09:54.007Z,12.80
2022-09-17T17:21:28.987Z,12.70
2022-09-17T17:23:57.830Z,12.60
2022-09-17T17:26:36.213Z,12.60
2022-09-17T17:29:05.229Z,12.60
2022-09-17T17:32:02.236Z,12.50
2022-09-17T17:34:36.020Z,12.50
2022-09-17T17:37:04.168Z,12.50
2022-09-17T17:39:34.431Z,12.60
2022-09-17T17:42:23.254Z,12.60
2022-09-17T17:44:52.318Z,12.60
2022-09-17T17:47:21.840Z,12.60
2022-09-17T17:49:51.774Z,12.70
2022-09-17T17:52:27.895Z,12.70
2022-09-17T17:54:55.688Z,12.70
2022-09-17T17:57:34.364Z,12.70
2022-09-17T18:00:08.995Z,12.60
2022-09-17T18:02:37.805Z,12.60
2022-09-17T18:05:18.310Z,12.60
2022-09-17T18:07:52.581Z,12.60
2022-09-17T18:10:28.223Z,12.60
2022-09-17T18:15:32.896Z,12.60
2022-09-17T18:18:04.356Z,12.60
2022-09-17T18:20:39.441Z,12.60
2022-09-17T18:23:43.238Z,12.60
2022-09-17T18:26:13.905Z,12.60
2022-09-17T18:28:46.169Z,12.60
2022-09-17T18:36:40.563Z,12.60
2022-09-17T18:42:08.596Z,12.70
2022-09-17T18:44:36.436Z,12.80
2022-09-17T18:47:06.366Z,12.80
2022-09-17T18:49:35.243Z,12.70
2022-09-17T18:52:09.263Z,12.70
2022-09-17T18:57:43.726Z,12.80
2022-09-17T19:00:12.237Z,12.80
2022-09-17T19:02:40.079Z,12.80
2022-09-17T19:05:18.000Z,12.80
2022-09-17T19:07:48.608Z,12.80
2022-09-17T19:10:19.570Z,12.80
2022-09-17T19:12:48.330Z,12.80
2022-09-17T19:15:17.903Z,12.80
2022-09-17T19:17:45.742Z,12.80
2022-09-17T19:20:16.633Z,12.90
2022-09-17T19:23:04.984Z,12.90
2022-09-17T19:25:44.101Z,12.90
2022-09-17T19:28:11.975Z,12.90
2022-09-17T19:30:40.711Z,13.00
2022-09-17T19:33:12.871Z,12.90
2022-09-17T19:35:44.987Z,12.90
2022-09-17T19:38:16.331Z,13.00
2022-09-17T19:40:44.862Z,13.00
2022-09-17T19:43:12.697Z,13.00
2022-09-17T19:45:40.536Z,13.00
2022-09-17T19:48:08.360Z,13.10
2022-09-17T19:50:36.179Z,13.10
2022-09-17T19:53:06.918Z,13.10
2022-09-17T19:55:39.146Z,13.10
2022-09-17T19:58:07.187Z,13.10
2022-09-17T20:00:37.240Z,13.10
2022-09-17T20:03:05.957Z,13.10
2022-09-17T20:05:35.001Z,13.10
2022-09-17T20:08:04.644Z,13.10
2022-09-17T20:10:37.281Z,13.10
2022-09-17T20:13:11.322Z,13.10
2022-09-17T20:15:40.444Z,13.20
2022-09-17T20:18:08.308Z,13.20
2022-09-17T20:20:40.490Z,13.20
2022-09-17T20:23:08.488Z,13.20
2022-09-17T20:25:37.648Z,13.20
2022-09-17T20:28:05.711Z,13.20
2022-09-17T20:30:33.522Z,13.20
2022-09-17T20:33:01.817Z,13.20
2022-09-17T20:35:33.789Z,13.20
2022-09-17T20:39:09.432Z,13.10
2022-09-17T20:40:53.671Z,13.10
2022-09-17T20:43:21.942Z,13.10
2022-09-17T20:45:58.404Z,13.10
2022-09-17T20:48:27.532Z,13.10
2022-09-17T20:50:57.155Z,13.10
2022-09-17T20:53:25.403Z,13.10
2022-09-17T20:56:00.037Z,13.10
2022-09-17T20:58:31.076Z,13.20
2022-09-17T21:01:13.439Z,13.10
2022-09-17T21:03:41.632Z,13.10
2022-09-17T21:06:17.190Z,13.10
2022-09-17T21:08:45.995Z,13.10
2022-09-17T21:11:16.241Z,13.20
2022-09-17T21:13:47.044Z,13.20
2022-09-17T21:16:15.908Z,13.20
2022-09-17T21:18:44.510Z,13.20
2022-09-17T21:21:16.207Z,13.20
2022-09-17T21:23:45.571Z,13.20
2022-09-17T21:26:22.715Z,13.20
2022-09-17T21:28:53.175Z,13.20
2022-09-17T21:31:27.267Z,13.20
2022-09-17T21:33:59.156Z,13.20
2022-09-17T21:36:30.829Z,13.20
2022-09-17T21:39:07.972Z,13.20
2022-09-17T21:41:42.711Z,13.20
2022-09-17T21:44:14.218Z,13.20
2022-09-17T21:46:44.527Z,13.20
2022-09-17T21:49:13.501Z,13.20
2022-09-17T21:51:47.400Z,13.20
2022-09-17T21:54:22.782Z,13.20
2022-09-17T21:57:06.481Z,13.20
2022-09-17T21:59:43.892Z,13.20
2022-09-17T22:02:13.310Z,13.20
2022-09-17T22:04:56.150Z,13.20
2022-09-17T22:07:30.045Z,13.20
2022-09-17T22:10:00.256Z,13.20
2022-09-17T22:15:12.739Z,13.30
2022-09-17T22:17:52.145Z,13.30
2022-09-17T22:20:38.282Z,13.30
2022-09-17T22:23:23.272Z,13.20
2022-09-17T22:26:30.378Z,13.10
2022-09-17T22:29:10.988Z,13.10
2022-09-17T22:32:11.387Z,13.10
2022-09-17T22:35:02.992Z,13.00
2022-09-17T22:37:40.989Z,13.00
2022-09-17T22:40:47.177Z,13.00
2022-09-17T22:43:16.817Z,13.00
2022-09-17T22:45:51.266Z,13.00
2022-09-17T22:48:20.421Z,12.90
2022-09-17T22:51:13.849Z,12.90
2022-09-17T22:53:49.127Z,13.00
2022-09-17T22:56:21.937Z,13.00
2022-09-17T22:58:50.195Z,13.00
2022-09-17T23:01:45.851Z,13.00
2022-09-17T23:04:14.822Z,13.10
2022-09-17T23:07:06.054Z,13.10
2022-09-17T23:15:08.937Z,13.10
2022-09-17T23:17:45.553Z,13.20
2022-09-17T23:20:27.923Z,13.20
2022-09-17T23:23:31.319Z,13.20
2022-09-17T23:26:29.680Z,13.20
2022-09-17T23:29:04.851Z,13.20
2022-09-17T23:35:08.637Z,13.20
2022-09-17T23:37:46.130Z,13.20
2022-09-17T23:40:31.744Z,13.30
2022-09-17T23:43:03.698Z,13.30
2022-09-17T23:45:52.443Z,13.30
2022-09-17T23:48:25.306Z,13.30
2022-09-17T23:51:19.706Z,13.30
2022-09-17T23:54:16.086Z,13.30
2022-09-17T23:56:53.744Z,13.30
2022-09-17T23:59:38.725Z,13.30
